Time;durP1;ratioP1;P1;durP2;ratioP2;P2;SDS_P1;SDS_P2;PMS_P1;PMS_P2;Temp;Humidity;BMP_temperature;BMP_pressure;BME280_temperature;BME280_humidity;BME280_pressure;Samples;Min_cycle;Max_cycle;Signal;HPM_P1;HPM_P2
2022/05/12 00:01:06;;;;;;;5.15;3.92;;;22.90;65.30;;;;;;10946037;32;20050;-69
2022/05/12 00:07:08;;;;;;;8.73;6.25;;;22.90;65.80;;;;;;10944326;32;20315;-74
2022/05/12 00:13:11;;;;;;;12.43;6.40;;;22.80;66.00;;;;;;10944020;32;20403;-74
2022/05/12 00:19:13;;;;;;;11.35;5.93;;;22.80;65.90;;;;;;10945559;32;20045;-74
2022/05/12 00:25:20;;;;;;;8.73;5.78;;;22.70;66.00;;;;;;10945487;32;20045;-74
2022/05/12 00:31:40;;;;;;;8.95;6.30;;;22.70;66.60;;;;;;10945040;32;20027;-74
2022/05/12 00:37:43;;;;;;;11.80;6.90;;;22.60;67.30;;;;;;10944840;32;20023;-74
2022/05/12 00:43:49;;;;;;;9.77;6.62;;;22.60;68.10;;;;;;10944180;32;20324;-74
2022/05/12 00:49:53;;;;;;;8.43;6.68;;;22.50;68.90;;;;;;10944432;32;20023;-74
2022/05/12 00:55:58;;;;;;;7.65;5.45;;;22.50;69.10;;;;;;10944224;32;20032;-74
2022/05/12 01:02:02;;;;;;;9.85;6.20;;;22.50;69.30;;;;;;10944000;32;20027;-74
2022/05/12 01:08:04;;;;;;;14.68;8.82;;;22.40;69.80;;;;;;10943715;32;20092;-75
2022/05/12 01:14:07;;;;;;;13.38;8.60;;;22.30;70.40;;;;;;10943518;32;20057;-74
2022/05/12 01:20:11;;;;;;;13.57;9.05;;;22.30;70.10;;;;;;10939148;32;20030;-74
2022/05/12 01:26:14;;;;;;;13.62;8.68;;;22.30;70.60;;;;;;10943031;32;20023;-75
2022/05/12 01:32:17;;;;;;;10.75;8.65;;;22.20;71.00;;;;;;10942833;32;20054;-75
2022/05/12 01:38:20;;;;;;;13.30;8.38;;;22.20;71.00;;;;;;10942758;32;20045;-74
2022/05/12 01:44:22;;;;;;;12.98;9.50;;;22.10;71.10;;;;;;10942651;32;20031;-75
2022/05/12 01:50:24;;;;;;;16.65;11.12;;;22.00;71.60;;;;;;10943086;32;20015;-75
2022/05/12 01:56:27;;;;;;;10.27;9.15;;;21.90;72.00;;;;;;10942294;32;20096;-74
2022/05/12 02:02:29;;;;;;;14.60;10.25;;;21.80;71.70;;;;;;10942116;32;20387;-75
2022/05/12 02:08:31;;;;;;;11.82;8.98;;;21.70;72.50;;;;;;10942049;32;20387;-74
2022/05/12 02:14:33;;;;;;;11.07;9.05;;;21.70;72.40;;;;;;10941905;32;20038;-75
2022/05/12 02:20:35;;;;;;;11.07;9.27;;;21.60;72.60;;;;;;10942037;32;20019;-75
2022/05/12 02:26:37;;;;;;;16.62;12.02;;;21.60;72.40;;;;;;10937823;32;20049;-75
2022/05/12 02:32:39;;;;;;;18.27;9.32;;;21.60;72.10;;;;;;10941611;32;20049;-75
2022/05/12 02:38:42;;;;;;;11.18;8.85;;;21.60;71.90;;;;;;10941560;32;20069;-74
2022/05/12 02:44:44;;;;;;;13.80;9.32;;;21.60;72.50;;;;;;10941380;32;20392;-75
2022/05/12 02:51:17;;;;;;;14.40;10.60;;;21.50;73.10;;;;;;10941171;32;20237;-74
2022/05/12 02:57:19;;;;;;;14.55;10.52;;;21.50;73.50;;;;;;10941392;32;20363;-75
2022/05/12 03:03:21;;;;;;;12.15;10.40;;;21.50;73.20;;;;;;10939860;32;20031;-75
2022/05/12 03:09:36;;;;;;;20.17;10.02;;;21.50;72.60;;;;;;10947295;32;20058;-74
2022/05/12 03:15:39;;;;;;;12.27;10.32;;;21.50;72.80;;;;;;10947752;32;20023;-74
2022/05/12 03:21:41;;;;;;;12.57;10.02;;;21.40;72.80;;;;;;10947686;32;20023;-75
2022/05/12 03:27:45;;;;;;;11.88;9.57;;;21.30;72.90;;;;;;10931603;32;20050;-75
2022/05/12 03:33:48;;;;;;;14.30;11.35;;;21.30;72.70;;;;;;10947242;32;20110;-75
2022/05/12 03:39:50;;;;;;;11.85;9.75;;;21.30;73.10;;;;;;10947186;32;20045;-75
2022/05/12 03:45:52;;;;;;;14.32;11.20;;;21.30;72.80;;;;;;10946834;32;20022;-75
2022/05/12 03:51:54;;;;;;;10.98;8.18;;;21.20;72.70;;;;;;10946443;32;20027;-75
2022/05/12 03:57:56;;;;;;;13.93;11.23;;;21.20;72.70;;;;;;10946429;32;20027;-75
2022/05/12 04:03:59;;;;;;;15.75;9.52;;;21.10;73.30;;;;;;10946212;32;20045;-75
2022/05/12 04:10:02;;;;;;;13.52;9.57;;;21.10;73.00;;;;;;10945829;32;20023;-71
2022/05/12 04:16:05;;;;;;;11.30;8.90;;;21.10;73.00;;;;;;10944494;32;20027;-71
2022/05/12 04:22:07;;;;;;;12.57;10.13;;;21.10;73.00;;;;;;10945348;32;20055;-71
2022/05/12 04:28:31;;;;;;;14.07;11.12;;;21.00;73.40;;;;;;10941684;32;20413;-71
2022/05/12 04:40:53;;;;;;;12.43;9.02;;;21.00;73.50;;;;;;10944528;32;20030;-71
2022/05/12 04:46:55;;;;;;;11.93;10.60;;;21.00;73.20;;;;;;10944576;32;20346;-71
2022/05/12 04:52:58;;;;;;;9.70;7.85;;;21.10;73.20;;;;;;10944166;32;20074;-71
2022/05/12 04:59:08;;;;;;;14.87;9.05;;;21.10;73.30;;;;;;10939711;32;20031;-71
2022/05/12 05:05:12;;;;;;;13.45;9.82;;;21.10;73.20;;;;;;10943685;32;20045;-70
2022/05/12 05:11:14;;;;;;;11.00;8.40;;;21.10;73.20;;;;;;10941191;32;20050;-70
2022/05/12 05:17:17;;;;;;;11.70;9.75;;;21.00;73.10;;;;;;10943676;32;20049;-70
2022/05/12 05:23:21;;;;;;;11.98;8.07;;;21.00;73.70;;;;;;10943284;32;20057;-69
2022/05/12 05:29:23;;;;;;;8.80;6.93;;;21.10;73.70;;;;;;10939019;32;20023;-70
2022/05/12 05:35:25;;;;;;;17.70;8.75;;;21.20;73.40;;;;;;10927708;32;20023;-69
2022/05/12 05:41:27;;;;;;;11.10;9.23;;;21.30;73.60;;;;;;10899792;32;20081;-70
2022/05/12 05:47:29;;;;;;;10.60;8.80;;;21.30;73.20;;;;;;10904626;32;20053;-69
2022/05/12 05:54:02;;;;;;;11.88;8.27;;;21.30;73.40;;;;;;10904500;32;20027;-69
2022/05/12 06:00:06;;;;;;;12.25;8.65;;;21.40;73.00;;;;;;10904391;32;20023;-69
2022/05/12 06:06:08;;;;;;;11.60;8.85;;;21.50;72.90;;;;;;10904270;32;20339;-70
2022/05/12 06:12:11;;;;;;;9.30;6.87;;;21.70;72.70;;;;;;10906835;27;20347;-71
2022/05/12 06:18:15;;;;;;;17.00;7.70;;;21.80;72.30;;;;;;10911995;32;20058;-70
2022/05/12 06:24:18;;;;;;;9.80;7.32;;;22.00;72.20;;;;;;10925043;32;20119;-69
2022/05/12 06:30:20;;;;;;;10.15;7.82;;;22.10;71.90;;;;;;10931587;32;20065;-68
2022/05/12 06:36:23;;;;;;;11.98;7.87;;;22.20;72.00;;;;;;10901932;32;20399;-70
2022/05/12 06:42:25;;;;;;;11.12;7.28;;;22.30;71.80;;;;;;10902529;32;20028;-70
2022/05/12 06:48:27;;;;;;;7.20;5.70;;;22.40;71.40;;;;;;10910761;32;20078;-70
2022/05/12 06:54:29;;;;;;;8.00;6.50;;;22.50;71.30;;;;;;10910360;32;20053;-69
2022/05/12 07:00:33;;;;;;;6.45;4.37;;;22.60;71.30;;;;;;10905190;32;20042;-70
2022/05/12 07:06:35;;;;;;;9.48;6.47;;;22.70;71.50;;;;;;10909855;32;20019;-70
2022/05/12 07:12:37;;;;;;;8.18;5.97;;;22.70;71.10;;;;;;10909341;32;20043;-70
2022/05/12 07:18:39;;;;;;;8.40;6.65;;;22.80;71.00;;;;;;10909311;32;20323;-70
2022/05/12 07:31:09;;;;;;;15.43;7.62;;;22.90;70.30;;;;;;10908339;32;20426;-69
2022/05/12 07:37:11;;;;;;;11.45;8.02;;;23.00;69.90;;;;;;10907960;32;20024;-70
2022/05/12 07:43:13;;;;;;;8.05;4.82;;;23.20;69.50;;;;;;10908135;32;20019;-70
2022/05/12 07:49:16;;;;;;;11.40;8.32;;;23.30;69.30;;;;;;10908411;32;20081;-69
2022/05/12 07:55:18;;;;;;;9.88;7.60;;;23.30;69.00;;;;;;10907433;32;20057;-69
2022/05/12 08:01:22;;;;;;;8.65;6.47;;;23.40;68.80;;;;;;10908885;32;20418;-70
2022/05/12 08:07:24;;;;;;;10.90;7.43;;;23.50;68.60;;;;;;10908623;32;20399;-69
2022/05/12 08:13:33;;;;;;;12.15;10.43;;;23.60;68.30;;;;;;10908430;32;20045;-69
2022/05/12 08:19:35;;;;;;;10.48;6.22;;;23.70;68.10;;;;;;10906150;32;20162;-74
2022/05/12 08:25:38;;;;;;;10.00;6.40;;;23.70;67.90;;;;;;10907278;32;20085;-74
2022/05/12 08:31:40;;;;;;;13.05;9.57;;;23.80;67.30;;;;;;10907038;32;20050;-74
2022/05/12 08:37:42;;;;;;;17.12;8.98;;;24.00;66.40;;;;;;10906840;32;20027;-74
2022/05/12 08:43:44;;;;;;;10.48;6.47;;;24.10;65.80;;;;;;10906658;32;20065;-74
2022/05/12 08:49:50;;;;;;;10.70;7.72;;;24.20;65.40;;;;;;10906707;32;20053;-74
2022/05/12 08:55:57;;;;;;;8.35;5.95;;;24.30;65.20;;;;;;10919266;32;20411;-73
2022/05/12 09:02:09;;;;;;;9.57;5.50;;;24.50;64.40;;;;;;10912344;32;20027;-72
2022/05/12 09:08:34;;;;;;;7.57;5.43;;;24.80;64.10;;;;;;10903132;32;20058;-75
2022/05/12 09:14:59;;;;;;;11.50;7.87;;;24.80;63.60;;;;;;10905500;32;20049;-74
2022/05/12 09:21:05;;;;;;;13.23;6.68;;;24.80;63.50;;;;;;10905301;32;20049;-75
2022/05/12 09:27:13;;;;;;;12.60;5.97;;;24.90;63.30;;;;;;10905216;32;20058;-75
2022/05/12 09:33:24;;;;;;;15.77;6.97;;;25.00;63.00;;;;;;10904845;32;20039;-73
2022/05/12 09:39:35;;;;;;;13.70;7.22;;;25.10;62.20;;;;;;10904787;32;20058;-72
2022/05/12 09:45:37;;;;;;;13.23;6.65;;;25.30;62.00;;;;;;10904842;32;20065;-75
2022/05/12 09:51:41;;;;;;;10.98;7.10;;;25.30;61.40;;;;;;10900374;32;20045;-74
2022/05/12 09:58:25;;;;;;;8.45;6.57;;;25.50;60.80;;;;;;10904318;32;20058;-74
2022/05/12 10:11:06;;;;;;;13.05;9.45;;;25.80;59.30;;;;;;10912500;32;20031;-74
2022/05/12 10:17:33;;;;;;;8.55;6.15;;;25.80;58.70;;;;;;10909044;32;20027;-75
2022/05/12 10:23:54;;;;;;;10.98;6.20;;;26.00;58.70;;;;;;10912938;32;20057;-74
2022/05/12 10:30:18;;;;;;;7.90;6.47;;;26.20;58.60;;;;;;10911491;32;20027;-73
2022/05/12 10:37:04;;;;;;;14.15;7.68;;;26.60;58.00;;;;;;10910771;32;20027;-75
2022/05/12 10:43:25;;;;;;;8.98;6.30;;;26.80;57.50;;;;;;10907055;32;20046;-75
2022/05/12 10:49:49;;;;;;;14.20;9.45;;;26.90;57.20;;;;;;10911315;32;20327;-73
2022/05/12 10:56:34;;;;;;;8.80;6.35;;;27.00;57.20;;;;;;10910756;32;20039;-74
2022/05/12 11:02:44;;;;;;;7.12;5.25;;;27.10;56.70;;;;;;10864913;32;20046;-76
2022/05/12 11:09:09;;;;;;;7.80;5.45;;;27.50;56.40;;;;;;10868203;32;20035;-69
2022/05/12 11:15:16;;;;;;;16.00;7.90;;;27.70;55.40;;;;;;10867004;32;20145;-72
2022/05/12 11:21:25;;;;;;;8.40;6.05;;;27.70;54.10;;;;;;10868281;32;20316;-71
2022/05/12 11:34:51;;;;;;;8.13;5.80;;;28.10;53.60;;;;;;10869536;32;20363;-71
2022/05/12 11:40:54;;;;;;;8.30;5.25;;;28.30;53.10;;;;;;10909810;32;20061;-71
2022/05/12 11:47:41;;;;;;;7.10;4.80;;;28.60;53.20;;;;;;10895820;32;20015;-71
2022/05/12 11:54:02;;;;;;;16.17;7.30;;;28.90;52.70;;;;;;10909592;32;20426;-71
2022/05/12 12:00:08;;;;;;;12.85;6.32;;;29.10;51.90;;;;;;10909233;32;20015;-71
2022/05/12 12:06:31;;;;;;;10.75;6.28;;;29.00;51.60;;;;;;10904881;32;20023;-72
2022/05/12 12:12:43;;;;;;;10.43;7.25;;;28.90;51.30;;;;;;10908316;32;20031;-72
2022/05/12 12:18:48;;;;;;;9.55;7.03;;;29.00;50.80;;;;;;10903788;32;20027;-73
2022/05/12 12:24:57;;;;;;;10.98;6.03;;;29.00;50.90;;;;;;10907825;32;20053;-73
2022/05/12 12:31:06;;;;;;;13.32;5.82;;;28.90;50.90;;;;;;10907553;32;20384;-73
2022/05/12 12:37:09;;;;;;;14.82;7.00;;;29.10;50.90;;;;;;10902496;32;20035;-72
2022/05/12 12:43:25;;;;;;;9.73;6.70;;;29.30;50.30;;;;;;10906137;32;20019;-74
2022/05/12 12:49:54;;;;;;;8.83;6.97;;;29.30;50.10;;;;;;10901929;32;20042;-73
2022/05/12 13:02:40;;;;;;;11.93;5.72;;;29.20;49.80;;;;;;10911513;32;20344;-73
2022/05/12 13:08:43;;;;;;;9.27;5.70;;;29.20;49.60;;;;;;10900448;32;20023;-75
2022/05/12 13:14:47;;;;;;;9.80;6.55;;;29.30;49.80;;;;;;10887837;32;20023;-73
2022/05/12 13:20:52;;;;;;;13.48;7.25;;;29.20;49.70;;;;;;10905392;32;20042;-75
2022/05/12 13:26:59;;;;;;;7.80;5.25;;;29.10;50.10;;;;;;10913835;32;20030;-75
2022/05/12 13:33:10;;;;;;;11.35;7.40;;;29.20;50.40;;;;;;10943230;32;20046;-78
2022/05/12 13:39:41;;;;;;;10.75;6.70;;;29.30;50.30;;;;;;10919980;32;20023;-74
2022/05/12 13:45:47;;;;;;;10.43;5.32;;;29.30;50.20;;;;;;10937797;32;20027;-74
2022/05/12 13:51:52;;;;;;;7.18;5.15;;;29.30;49.60;;;;;;10938520;32;20018;-76
2022/05/12 13:57:54;;;;;;;12.10;5.95;;;29.40;49.50;;;;;;10927979;32;20023;-73
2022/05/12 14:04:11;;;;;;;7.53;6.05;;;29.50;49.30;;;;;;10939930;32;20015;-75
2022/05/12 14:10:27;;;;;;;7.57;5.22;;;29.50;49.40;;;;;;10926201;32;20343;-76
2022/05/12 14:22:56;;;;;;;16.17;7.82;;;29.70;49.30;;;;;;10938355;32;20027;-73
2022/05/12 14:28:58;;;;;;;8.68;6.10;;;29.70;48.80;;;;;;10941580;32;20031;-74
2022/05/12 14:35:26;;;;;;;7.20;4.15;;;29.60;49.10;;;;;;10937530;32;20035;-75
2022/05/12 14:41:28;;;;;;;8.25;5.78;;;29.60;49.70;;;;;;10928050;32;20434;-76
2022/05/12 14:48:04;;;;;;;9.23;6.78;;;29.70;50.10;;;;;;10940776;32;20034;-74
2022/05/12 14:54:17;;;;;;;10.87;6.97;;;29.80;50.60;;;;;;10938136;32;20058;-76
2022/05/12 15:00:19;;;;;;;8.75;5.87;;;29.60;51.10;;;;;;10905723;32;20400;-76
2022/05/12 15:06:42;;;;;;;11.90;7.30;;;29.50;51.30;;;;;;10910739;32;20335;-75
2022/05/12 15:12:44;;;;;;;7.47;5.32;;;29.40;51.90;;;;;;10910211;32;20046;-74
2022/05/12 15:18:47;;;;;;;6.50;5.05;;;29.30;52.60;;;;;;10905930;32;20028;-75
2022/05/12 15:24:49;;;;;;;14.18;8.60;;;29.20;52.40;;;;;;10911250;32;20062;-73
2022/05/12 15:30:52;;;;;;;10.43;6.95;;;29.30;52.70;;;;;;10909765;32;20045;-75
2022/05/12 15:36:54;;;;;;;13.35;7.57;;;29.20;52.80;;;;;;10909111;32;20054;-72
2022/05/12 15:42:56;;;;;;;11.73;7.30;;;29.30;52.90;;;;;;10917191;32;20035;-75
2022/05/12 15:49:02;;;;;;;9.43;6.12;;;29.30;52.50;;;;;;10947174;32;20426;-75
2022/05/12 15:55:05;;;;;;;16.55;8.50;;;29.30;52.30;;;;;;10946576;32;20014;-75
2022/05/12 16:01:25;;;;;;;9.70;6.55;;;29.40;52.40;;;;;;10942537;32;20058;-73
2022/05/12 16:07:27;;;;;;;16.48;8.10;;;29.30;52.60;;;;;;10935462;32;20053;-75
2022/05/12 16:13:32;;;;;;;16.83;7.70;;;29.30;52.60;;;;;;10927472;32;20062;-73
2022/05/12 16:19:34;;;;;;;17.05;6.65;;;29.30;52.30;;;;;;10945865;32;20015;-72
2022/05/12 16:25:46;;;;;;;10.63;5.40;;;29.30;52.30;;;;;;10945116;32;20050;-74
2022/05/12 16:31:49;;;;;;;5.60;3.97;;;29.30;52.50;;;;;;10926925;32;20031;-75
2022/05/12 16:37:51;;;;;;;12.43;5.28;;;29.20;52.10;;;;;;10893512;32;20062;-76
2022/05/12 16:43:55;;;;;;;6.93;3.90;;;29.20;51.80;;;;;;10904557;32;20312;-74
2022/05/12 16:49:57;;;;;;;7.25;3.90;;;29.20;51.10;;;;;;10906965;32;20328;-74
2022/05/12 16:56:27;;;;;;;13.38;4.03;;;29.00;50.70;;;;;;10906580;32;20049;-73
2022/05/12 17:02:32;;;;;;;5.12;3.17;;;28.90;50.30;;;;;;10906210;32;20058;-74
2022/05/12 17:08:36;;;;;;;4.85;3.03;;;29.00;50.30;;;;;;10906073;32;20015;-75
2022/05/12 17:14:39;;;;;;;5.50;3.53;;;29.30;49.80;;;;;;10489138;32;12097103;-74
2022/05/12 17:20:42;;;;;;;6.43;3.12;;;29.30;49.90;;;;;;10826238;32;20024;-75
2022/05/12 17:26:44;;;;;;;7.75;3.72;;;29.30;49.80;;;;;;10827075;32;20024;-74
2022/05/12 17:32:47;;;;;;;5.40;2.72;;;29.30;49.80;;;;;;10827585;32;20058;-75
2022/05/12 17:38:49;;;;;;;3.37;2.30;;;29.90;49.00;;;;;;10854193;32;20081;-74
2022/05/12 17:44:57;;;;;;;3.70;2.40;;;30.70;47.90;;;;;;10902774;32;20042;-75
2022/05/12 17:50:59;;;;;;;3.78;2.45;;;31.10;47.20;;;;;;10903602;32;20046;-75
2022/05/12 17:57:02;;;;;;;4.97;2.72;;;31.20;47.30;;;;;;10890985;32;20042;-73
2022/05/12 18:03:10;;;;;;;3.70;2.45;;;30.80;47.90;;;;;;10915473;32;20390;-74
2022/05/12 18:09:12;;;;;;;;;;;30.20;49.30;;;;;;10930721;32;20021;-75
2022/05/12 18:15:17;;;;;;;3.42;2.00;;;29.20;51.10;;;;;;10905007;32;19927;-71
2022/05/12 18:21:19;;;;;;;3.47;2.30;;;28.40;52.60;;;;;;10905159;32;20019;-71
2022/05/12 18:27:23;;;;;;;3.22;2.78;;;27.90;53.70;;;;;;10905492;32;20041;-71
2022/05/12 18:33:25;;;;;;;3.72;2.42;;;27.40;55.00;;;;;;10908913;32;20027;-71
2022/05/12 18:39:27;;;;;;;6.97;3.10;;;27.00;56.10;;;;;;10925291;32;20035;-71
2022/05/12 18:45:33;;;;;;;5.22;2.53;;;26.80;57.00;;;;;;10929875;32;20058;-72
2022/05/12 18:51:53;;;;;;;5.18;2.78;;;26.60;57.50;;;;;;10936252;32;20061;-71
2022/05/12 18:57:55;;;;;;;6.00;3.40;;;26.50;57.90;;;;;;10943773;32;20363;-71
2022/05/12 19:04:02;;;;;;;5.00;3.15;;;26.30;58.60;;;;;;10921129;32;20023;-71
2022/05/12 19:10:05;;;;;;;;;;;26.20;59.20;;;;;;10916713;32;20027;-74
2022/05/12 19:16:12;;;;;;;3.17;2.70;;;26.00;59.60;;;;;;10938952;32;20309;-73
2022/05/12 19:22:15;;;;;;;5.07;2.90;;;26.00;60.20;;;;;;10937186;32;20030;-74
2022/05/12 19:28:18;;;;;;;5.93;2.92;;;25.90;60.40;;;;;;10920449;32;20023;-74
2022/05/12 19:34:20;;;;;;;4.80;2.80;;;25.90;60.70;;;;;;10919129;32;20062;-75
2022/05/12 19:40:23;;;;;;;4.72;3.05;;;25.80;60.90;;;;;;10934760;32;20027;-72
2022/05/12 19:46:25;;;;;;;11.12;3.22;;;25.80;60.70;;;;;;10929579;32;20027;-72
2022/05/12 19:52:27;;;;;;;3.40;2.30;;;25.80;60.60;;;;;;10929600;32;20019;-72
2022/05/12 19:58:29;;;;;;;3.33;2.47;;;25.80;60.50;;;;;;10924165;32;20059;-71
2022/05/12 20:04:32;;;;;;;4.05;2.17;;;25.80;60.50;;;;;;10947194;32;20045;-71
2022/05/12 20:10:38;;;;;;;2.20;1.58;;;25.70;60.60;;;;;;10946758;32;20050;-72
2022/05/12 20:16:54;;;;;;;2.57;1.60;;;25.70;60.60;;;;;;10943308;32;20023;-74
2022/05/12 20:22:57;;;;;;;2.35;1.65;;;25.60;60.60;;;;;;10945249;32;20019;-72
2022/05/12 20:29:06;;;;;;;3.40;2.10;;;25.60;60.50;;;;;;10932697;32;20034;-72
2022/05/12 20:35:12;;;;;;;2.30;1.80;;;25.50;60.60;;;;;;10946013;32;20050;-71
2022/05/12 20:41:23;;;;;;;3.90;1.58;;;25.40;60.60;;;;;;10945695;32;20379;-74
2022/05/12 20:47:25;;;;;;;2.83;1.75;;;25.30;60.70;;;;;;10940858;32;20023;-74
2022/05/12 20:53:27;;;;;;;3.05;1.52;;;25.30;60.80;;;;;;10932873;32;20371;-74
2022/05/12 20:59:29;;;;;;;3.00;1.75;;;25.20;60.90;;;;;;10939635;32;20060;-74
2022/05/12 21:05:42;;;;;;;2.83;1.70;;;25.10;61.00;;;;;;10944176;32;20023;-74
2022/05/12 21:11:45;;;;;;;3.83;1.20;;;25.00;61.20;;;;;;10944087;32;20058;-75
2022/05/12 21:17:48;;;;;;;2.20;1.23;;;25.00;61.40;;;;;;10939550;32;20030;-74
2022/05/12 21:23:50;;;;;;;7.93;2.53;;;24.90;61.60;;;;;;10943654;32;20062;-72
2022/05/12 21:29:52;;;;;;;3.47;1.95;;;24.80;62.60;;;;;;10930297;32;20041;-72
2022/05/12 21:35:54;;;;;;;4.37;1.87;;;24.60;63.20;;;;;;10943715;32;20064;-72
2022/05/12 21:41:57;;;;;;;2.97;1.85;;;24.60;63.10;;;;;;10943368;32;20391;-72
2022/05/12 21:48:19;;;;;;;4.00;2.30;;;24.60;63.30;;;;;;10943034;32;20392;-72
2022/05/12 21:54:21;;;;;;;1.95;1.58;;;24.60;63.70;;;;;;10943166;32;20421;-72
2022/05/12 22:07:10;;;;;;;10.68;2.40;;;24.30;64.10;;;;;;10942766;32;20343;-72
2022/05/12 22:13:12;;;;;;;3.17;1.83;;;24.30;64.60;;;;;;10946425;27;20065;-72
2022/05/12 22:19:21;;;;;;;2.50;1.50;;;24.20;64.70;;;;;;10938780;32;20374;-72
2022/05/12 22:25:24;;;;;;;2.50;1.70;;;24.10;65.30;;;;;;10942470;32;20019;-72
2022/05/12 22:31:26;;;;;;;3.58;2.12;;;24.00;65.90;;;;;;10942575;32;20011;-72
2022/05/12 22:37:29;;;;;;;5.55;1.62;;;23.90;65.70;;;;;;10942463;32;20080;-72
2022/05/12 22:43:31;;;;;;;2.78;2.20;;;23.80;65.70;;;;;;10941066;32;20019;-72
2022/05/12 22:49:33;;;;;;;3.22;2.08;;;23.80;65.90;;;;;;10942160;32;20027;-72
2022/05/12 22:55:35;;;;;;;4.53;1.90;;;23.80;66.10;;;;;;10928862;32;20042;-72
2022/05/12 23:01:38;;;;;;;4.55;2.08;;;23.70;66.20;;;;;;10937786;32;20022;-72
2022/05/12 23:07:40;;;;;;;4.32;2.10;;;23.70;66.70;;;;;;10941854;32;20054;-72
2022/05/12 23:13:43;;;;;;;2.92;2.05;;;23.60;67.00;;;;;;10938558;32;20019;-72
2022/05/12 23:26:06;;;;;;;6.82;2.83;;;23.60;66.80;;;;;;10947419;32;20045;-72
2022/05/12 23:32:25;;;;;;;3.03;1.85;;;23.50;66.90;;;;;;10948519;32;20034;-72
2022/05/12 23:38:27;;;;;;;;;;;23.60;66.90;;;;;;10948038;32;20030;-72
2022/05/12 23:44:29;;;;;;;4.30;2.58;;;23.50;67.40;;;;;;10947829;32;19922;-72
2022/05/12 23:50:32;;;;;;;2.42;1.62;;;23.40;67.60;;;;;;10947662;32;20027;-72
2022/05/12 23:56:33;;;;;;;3.30;1.85;;;23.30;67.70;;;;;;10947516;32;20026;-72
